createdAt,value
2022-09-18T00:01:15.677Z,13.86
2022-09-18T00:03:43.017Z,13.86
2022-09-18T00:06:13.871Z,13.84
2022-09-18T00:08:43.205Z,13.82
2022-09-18T00:11:13.160Z,13.82
2022-09-18T00:13:42.023Z,13.79
2022-09-18T00:16:11.013Z,13.75
2022-09-18T00:18:38.731Z,13.73
2022-09-18T00:21:08.505Z,13.75
2022-09-18T00:23:37.170Z,13.75
2022-09-18T00:26:05.645Z,13.76
2022-09-18T00:28:33.417Z,13.75
2022-09-18T00:31:13.761Z,13.74
2022-09-18T00:33:41.392Z,13.74
2022-09-18T00:36:12.311Z,13.74
2022-09-18T00:38:39.628Z,13.71
2022-09-18T00:41:10.628Z,13.68
2022-09-18T00:43:38.150Z,13.66
2022-09-18T00:46:26.494Z,13.62
2022-09-18T00:49:06.841Z,13.57
2022-09-18T00:51:35.766Z,13.54
2022-09-18T00:54:26.446Z,13.53
2022-09-18T00:56:56.093Z,13.51
2022-09-18T00:59:26.921Z,13.50
2022-09-18T01:01:55.461Z,13.49
2022-09-18T01:04:22.998Z,13.46
2022-09-18T01:06:54.135Z,13.43
2022-09-18T01:09:41.716Z,13.41
2022-09-18T01:12:12.709Z,13.37
2022-09-18T01:14:56.132Z,13.37
2022-09-18T01:17:42.872Z,13.35
2022-09-18T01:20:34.102Z,13.35
2022-09-18T01:23:08.029Z,13.34
2022-09-18T01:26:03.407Z,13.34
2022-09-18T01:29:07.744Z,13.34
2022-09-18T01:31:47.604Z,13.33
2022-09-18T01:34:24.727Z,13.31
2022-09-18T01:37:01.833Z,13.29
2022-09-18T01:39:32.449Z,13.26
2022-09-18T01:42:02.445Z,13.22
2022-09-18T01:44:31.998Z,13.18
2022-09-18T01:47:03.507Z,13.14
2022-09-18T01:49:36.405Z,13.10
2022-09-18T01:52:10.401Z,13.08
2022-09-18T01:54:41.885Z,13.04
2022-09-18T01:57:34.063Z,12.98
2022-09-18T02:00:05.151Z,12.92
2022-09-18T02:02:59.041Z,12.84
2022-09-18T02:05:33.328Z,12.79
2022-09-18T02:08:04.628Z,12.73
2022-09-18T02:10:34.324Z,12.67
2022-09-18T02:13:02.807Z,12.64
2022-09-18T02:15:34.975Z,12.61
2022-09-18T02:18:07.613Z,12.57
2022-09-18T02:20:42.058Z,12.52
2022-09-18T02:23:10.035Z,12.48
2022-09-18T02:25:55.544Z,12.44
2022-09-18T02:28:23.992Z,12.37
2022-09-18T02:30:51.661Z,12.29
2022-09-18T02:33:33.072Z,12.22
2022-09-18T02:36:37.047Z,12.16
2022-09-18T02:39:24.865Z,12.09
2022-09-18T02:42:16.995Z,11.98
2022-09-18T02:45:12.221Z,11.88
2022-09-18T02:47:55.725Z,11.81
2022-09-18T02:50:41.773Z,11.77
2022-09-18T02:53:22.017Z,11.71
2022-09-18T02:55:52.563Z,11.66
2022-09-18T02:58:29.380Z,11.63
2022-09-18T03:00:58.903Z,11.58
2022-09-18T03:03:29.684Z,11.52
2022-09-18T03:05:59.070Z,11.44
2022-09-18T03:08:26.448Z,11.39
2022-09-18T03:10:53.824Z,11.33
2022-09-18T03:13:21.093Z,11.26
2022-09-18T03:15:58.966Z,11.20
2022-09-18T04:10:53.766Z,10.47
2022-09-18T04:13:21.944Z,10.44
2022-09-18T04:15:49.988Z,10.41
2022-09-18T04:18:17.559Z,10.38
2022-09-18T04:20:45.569Z,10.32
2022-09-18T04:23:14.301Z,10.26
2022-09-18T04:25:43.267Z,10.22
2022-09-18T04:28:11.294Z,10.21
2022-09-18T04:30:40.769Z,10.18
2022-09-18T04:33:08.125Z,10.15
2022-09-18T04:35:35.784Z,10.12
2022-09-18T04:38:03.929Z,10.07
2022-09-18T04:40:31.338Z,10.06
2022-09-18T04:43:00.259Z,10.07
2022-09-18T04:45:27.983Z,10.03
2022-09-18T04:47:55.409Z,9.97
2022-09-18T04:50:24.075Z,9.95
2022-09-18T04:53:05.572Z,9.94
2022-09-18T04:55:33.443Z,9.86
2022-09-18T04:58:00.929Z,9.84
2022-09-18T05:00:28.536Z,9.82
2022-09-18T05:02:57.600Z,9.78
2022-09-18T05:05:27.697Z,9.79
2022-09-18T05:08:00.011Z,9.78
2022-09-18T05:10:27.649Z,9.77
2022-09-18T05:12:55.034Z,9.76
2022-09-18T05:15:22.690Z,9.77
2022-09-18T05:18:11.139Z,9.75
2022-09-18T05:20:35.971Z,9.73
2022-09-18T05:23:06.507Z,9.71
2022-09-18T05:25:33.832Z,9.71
2022-09-18T05:28:03.069Z,9.75
2022-09-18T05:30:32.594Z,9.79
2022-09-18T05:33:04.623Z,9.83
2022-09-18T05:35:33.979Z,9.91
2022-09-18T05:38:02.173Z,9.95
2022-09-18T05:40:36.692Z,10.03
2022-09-18T05:43:05.181Z,10.12
2022-09-18T05:45:33.558Z,10.20
2022-09-18T05:48:04.869Z,10.23
2022-09-18T05:50:33.195Z,10.25
2022-09-18T05:53:06.041Z,10.27
2022-09-18T05:55:38.156Z,10.28
2022-09-18T05:58:06.731Z,10.31
2022-09-18T06:00:35.362Z,10.33
2022-09-18T06:03:08.241Z,10.33
2022-09-18T06:05:39.795Z,10.32
2022-09-18T06:08:09.667Z,10.33
2022-09-18T06:10:38.998Z,10.28
2022-09-18T06:13:11.546Z,10.22
2022-09-18T06:15:46.265Z,10.19
2022-09-18T06:18:14.571Z,10.21
2022-09-18T06:20:42.539Z,10.23
2022-09-18T06:23:10.259Z,10.30
2022-09-18T06:25:42.260Z,10.34
2022-09-18T06:28:10.027Z,10.37
2022-09-18T06:30:37.423Z,10.38
2022-09-18T06:33:06.588Z,10.40
2022-09-18T06:35:35.894Z,10.42
2022-09-18T06:38:04.856Z,10.43
2022-09-18T06:40:39.967Z,10.45
2022-09-18T06:43:11.789Z,10.47
2022-09-18T06:45:51.926Z,10.44
2022-09-18T06:48:21.435Z,10.44
2022-09-18T06:50:54.651Z,10.40
2022-09-18T06:53:23.245Z,10.39
2022-09-18T06:55:55.768Z,10.35
2022-09-18T06:58:23.103Z,10.32
2022-09-18T07:00:51.062Z,10.35
2022-09-18T07:03:20.173Z,10.37
2022-09-18T07:06:12.825Z,10.34
2022-09-18T07:08:51.779Z,10.31
2022-09-18T07:11:22.074Z,10.31
2022-09-18T07:13:53.710Z,10.33
2022-09-18T07:16:21.023Z,10.42
2022-09-18T07:18:48.506Z,10.54
2022-09-18T07:21:19.423Z,10.67
2022-09-18T07:23:46.729Z,10.82
2022-09-18T07:26:14.189Z,10.91
2022-09-18T07:28:42.499Z,11.02
2022-09-18T07:31:12.763Z,11.15
2022-09-18T07:33:43.102Z,11.27
2022-09-18T07:36:13.009Z,11.38
2022-09-18T07:38:41.945Z,11.46
2022-09-18T07:41:09.893Z,11.53
2022-09-18T07:43:36.932Z,11.54
2022-09-18T07:46:04.426Z,11.54
2022-09-18T07:48:39.596Z,11.46
2022-09-18T07:51:16.754Z,11.45
2022-09-18T07:53:48.650Z,11.49
2022-09-18T07:56:17.716Z,11.43
2022-09-18T07:58:45.453Z,11.39
2022-09-18T08:01:22.029Z,11.37
2022-09-18T08:03:53.567Z,11.34
2022-09-18T08:06:38.240Z,11.30
2022-09-18T08:09:11.049Z,11.22
2022-09-18T08:11:40.341Z,11.21
2022-09-18T08:14:10.607Z,11.22
2022-09-18T08:16:57.626Z,11.29
2022-09-18T08:19:28.766Z,11.31
2022-09-18T08:22:00.829Z,11.33
2022-09-18T08:24:28.509Z,11.39
2022-09-18T08:26:57.380Z,11.43
2022-09-18T08:29:25.246Z,11.47
2022-09-18T08:31:59.361Z,11.55
2022-09-18T08:34:31.026Z,11.64
2022-09-18T08:37:02.324Z,11.68
2022-09-18T08:39:52.025Z,11.71
2022-09-18T08:42:49.067Z,11.76
2022-09-18T08:45:22.245Z,11.85
2022-09-18T08:47:53.318Z,11.94
2022-09-18T08:50:26.981Z,11.96
2022-09-18T08:53:03.488Z,11.96
2022-09-18T08:55:43.507Z,11.97
2022-09-18T08:58:40.275Z,12.01
2022-09-18T09:01:23.762Z,11.90
2022-09-18T09:04:08.870Z,11.91
2022-09-18T09:06:42.945Z,11.89
2022-09-18T09:09:32.639Z,11.84
2022-09-18T09:12:13.467Z,11.79
2022-09-18T09:15:02.094Z,11.66
2022-09-18T09:17:49.202Z,11.64
2022-09-18T09:20:23.746Z,11.57
2022-09-18T09:23:02.393Z,11.43
2022-09-18T09:25:37.023Z,11.35
2022-09-18T09:28:20.845Z,11.29
2022-09-18T09:30:59.941Z,11.30
2022-09-18T09:34:00.505Z,11.34
2022-09-18T09:36:34.357Z,11.37
2022-09-18T09:39:22.395Z,11.34
2022-09-18T09:42:05.057Z,11.35
2022-09-18T09:44:49.264Z,11.37
2022-09-18T09:47:28.156Z,11.30
2022-09-18T09:50:10.771Z,11.28
2022-09-18T09:52:40.735Z,11.28
2022-09-18T09:55:19.041Z,11.35
2022-09-18T09:58:12.738Z,11.49
2022-09-18T10:00:53.829Z,11.58
2022-09-18T10:03:43.285Z,11.75
2022-09-18T10:06:40.846Z,11.85
2022-09-18T10:09:33.287Z,11.84
2022-09-18T10:12:12.676Z,11.80
2022-09-18T10:14:43.085Z,11.69
2022-09-18T10:17:12.184Z,11.84
2022-09-18T10:19:40.916Z,11.90
2022-09-18T10:22:12.423Z,11.90
2022-09-18T10:24:55.795Z,11.92
2022-09-18T10:27:28.503Z,11.94
2022-09-18T10:30:10.329Z,11.87
2022-09-18T10:32:46.510Z,11.87
2022-09-18T10:35:32.901Z,11.91
2022-09-18T10:38:04.319Z,12.02
2022-09-18T10:40:39.901Z,12.08
2022-09-18T10:43:23.226Z,12.11
2022-09-18T10:45:56.684Z,12.16
2022-09-18T10:48:27.803Z,12.21
2022-09-18T10:50:59.852Z,12.36
2022-09-18T10:53:39.277Z,12.32
2022-09-18T10:56:21.685Z,12.37
2022-09-18T10:58:57.083Z,12.49
2022-09-18T11:01:26.056Z,12.59
2022-09-18T11:04:03.436Z,12.58
2022-09-18T11:06:36.598Z,12.58
2022-09-18T11:09:15.923Z,12.63
2022-09-18T11:11:48.151Z,12.69
2022-09-18T11:14:26.486Z,12.69
2022-09-18T11:17:01.161Z,12.70
2022-09-18T11:19:37.531Z,12.73
2022-09-18T11:22:10.231Z,12.71
2022-09-18T11:24:41.990Z,12.77
2022-09-18T11:27:21.696Z,12.80
2022-09-18T11:29:49.531Z,12.86
2022-09-18T11:32:25.883Z,12.84
2022-09-18T11:35:04.731Z,12.86
2022-09-18T11:37:39.669Z,13.03
2022-09-18T11:40:27.159Z,13.18
2022-09-18T11:43:00.242Z,13.21
2022-09-18T11:46:12.709Z,13.17
2022-09-18T11:48:51.965Z,13.10
2022-09-18T11:51:28.312Z,12.99
2022-09-18T11:54:04.309Z,12.92
2022-09-18T11:56:51.270Z,12.87
2022-09-18T11:59:42.663Z,12.80
2022-09-18T12:02:28.395Z,12.65
2022-09-18T12:05:12.768Z,12.50
2022-09-18T12:08:00.556Z,12.37
2022-09-18T12:10:55.012Z,12.25
2022-09-18T12:13:40.292Z,12.23
2022-09-18T12:16:14.427Z,12.23
2022-09-18T12:18:51.780Z,12.30
2022-09-18T12:21:22.873Z,12.35
2022-09-18T12:23:51.056Z,12.40
2022-09-18T12:26:26.905Z,12.45
2022-09-18T12:28:59.871Z,12.45
2022-09-18T12:31:43.621Z,12.48
2022-09-18T12:34:27.975Z,12.43
2022-09-18T12:37:17.567Z,12.40
2022-09-18T12:39:56.215Z,12.38
2022-09-18T12:42:39.443Z,12.35
2022-09-18T12:45:31.739Z,12.34
2022-09-18T12:48:09.357Z,12.34
2022-09-18T12:50:46.642Z,12.29
2022-09-18T12:53:20.301Z,12.24
2022-09-18T12:56:21.220Z,12.22
2022-09-18T12:59:17.621Z,12.22
2022-09-18T13:02:07.989Z,12.23
2022-09-18T13:04:39.960Z,12.25
2022-09-18T13:19:20.413Z,12.64
2022-09-18T13:20:40.236Z,12.74
2022-09-18T13:23:47.927Z,12.88
2022-09-18T13:30:53.661Z,12.95
2022-09-18T13:33:57.379Z,12.90
2022-09-18T13:36:51.920Z,12.86
2022-09-18T13:39:46.238Z,12.82
2022-09-18T13:42:24.203Z,12.81
2022-09-18T13:46:06.024Z,12.87
2022-09-18T13:52:04.321Z,13.08
2022-09-18T14:13:52.287Z,13.83
2022-09-18T14:16:53.494Z,13.99
2022-09-18T14:40:08.306Z,13.35
2022-09-18T14:42:56.985Z,13.17
2022-09-18T15:14:17.873Z,13.05
2022-09-18T15:21:36.693Z,13.15
2022-09-18T15:24:46.308Z,13.07
2022-09-18T15:57:12.615Z,12.15
2022-09-18T15:59:40.408Z,12.13
2022-09-18T16:02:36.288Z,12.04
2022-09-18T16:05:22.884Z,12.02
2022-09-18T16:08:10.690Z,11.98
2022-09-18T16:18:34.389Z,11.74
2022-09-18T16:21:04.241Z,11.75
2022-09-18T16:23:38.282Z,11.71
2022-09-18T16:26:14.768Z,11.70
2022-09-18T16:28:45.123Z,11.68
2022-09-18T16:31:14.685Z,11.66
2022-09-18T16:33:56.859Z,11.64
2022-09-18T16:36:30.982Z,11.63
2022-09-18T16:39:00.971Z,11.58
2022-09-18T16:41:29.372Z,11.53
2022-09-18T16:43:56.733Z,11.51
2022-09-18T16:46:27.578Z,11.49
2022-09-18T16:48:55.691Z,11.49
2022-09-18T16:51:23.252Z,11.46
2022-09-18T16:53:51.550Z,11.43
2022-09-18T16:56:22.732Z,11.40
2022-09-18T16:58:51.799Z,11.41
2022-09-18T17:01:23.881Z,11.37
2022-09-18T17:03:58.083Z,11.36
2022-09-18T17:06:25.118Z,11.35
2022-09-18T17:08:52.653Z,11.35
2022-09-18T17:11:24.979Z,11.36
2022-09-18T17:14:02.392Z,11.37
2022-09-18T17:16:44.118Z,11.37
2022-09-18T17:19:03.133Z,11.39
2022-09-18T17:21:42.498Z,11.34
2022-09-18T17:24:25.493Z,11.35
2022-09-18T17:26:53.448Z,11.33
2022-09-18T17:29:21.238Z,11.30
2022-09-18T17:31:48.975Z,11.28
2022-09-18T17:34:18.311Z,11.27
2022-09-18T17:36:45.605Z,11.24
2022-09-18T17:39:13.145Z,11.24
2022-09-18T17:41:42.025Z,11.23
2022-09-18T17:44:09.959Z,11.22
2022-09-18T17:46:37.537Z,11.22
2022-09-18T17:49:06.012Z,11.23
2022-09-18T17:51:33.667Z,11.26
2022-09-18T17:54:03.523Z,11.26
2022-09-18T17:56:32.967Z,11.29
2022-09-18T17:59:03.195Z,11.29
2022-09-18T18:01:31.220Z,11.31
2022-09-18T18:03:59.825Z,11.31
2022-09-18T18:06:27.711Z,11.30
2022-09-18T18:08:56.878Z,11.29
2022-09-18T18:11:24.983Z,11.31
2022-09-18T18:13:53.945Z,11.30
2022-09-18T18:16:24.137Z,11.29
2022-09-18T18:18:54.088Z,11.29
2022-09-18T18:21:22.273Z,11.28
2022-09-18T18:23:55.452Z,11.25
2022-09-18T18:26:24.352Z,11.21
2022-09-18T18:28:52.136Z,11.19
2022-09-18T18:31:20.331Z,11.12
2022-09-18T18:33:48.047Z,11.03
2022-09-18T18:36:22.100Z,10.91
2022-09-18T18:38:52.441Z,10.81
2022-09-18T18:41:22.752Z,10.67
2022-09-18T18:43:54.919Z,10.58
2022-09-18T18:46:25.992Z,10.51
2022-09-18T18:49:02.291Z,10.44
2022-09-18T18:51:35.560Z,10.38
2022-09-18T18:54:05.473Z,10.32
2022-09-18T18:56:38.366Z,10.25
2022-09-18T18:59:16.745Z,10.19
2022-09-18T19:01:45.261Z,10.13
2022-09-18T19:07:00.386Z,9.98
2022-09-18T19:09:32.482Z,9.89
2022-09-18T19:12:07.791Z,9.82
2022-09-18T19:14:40.202Z,9.75
2022-09-18T19:17:17.718Z,9.69
2022-09-18T19:19:45.881Z,9.61
2022-09-18T19:22:22.188Z,9.52
2022-09-18T19:24:50.129Z,9.40
2022-09-18T19:27:20.153Z,9.33
2022-09-18T19:29:58.425Z,9.25
2022-09-18T19:32:27.502Z,9.20
2022-09-18T19:34:55.192Z,9.08
2022-09-18T19:37:38.132Z,9.01
2022-09-18T19:40:34.812Z,8.99
2022-09-18T19:43:25.379Z,8.95
2022-09-18T19:45:55.150Z,8.97
2022-09-18T19:48:25.136Z,9.02
2022-09-18T19:50:56.953Z,9.05
2022-09-18T19:53:24.822Z,9.11
2022-09-18T19:55:52.661Z,9.16
2022-09-18T19:58:20.099Z,9.22
2022-09-18T20:00:48.216Z,9.25
2022-09-18T20:03:21.691Z,9.26
2022-09-18T20:05:49.820Z,9.27
2022-09-18T20:08:17.514Z,9.29
2022-09-18T20:10:50.376Z,9.30
2022-09-18T20:13:25.730Z,9.31
2022-09-18T20:15:59.194Z,9.33
2022-09-18T20:18:27.174Z,9.33
2022-09-18T20:20:54.766Z,9.36
2022-09-18T20:23:22.933Z,9.36
2022-09-18T20:25:52.091Z,9.37
2022-09-18T20:28:21.663Z,9.36
2022-09-18T20:30:49.072Z,9.38
2022-09-18T20:33:16.656Z,9.37
2022-09-18T20:35:45.908Z,9.39
2022-09-18T20:38:13.340Z,9.41
2022-09-18T20:40:41.538Z,9.44
2022-09-18T20:43:09.048Z,9.43
2022-09-18T20:45:36.714Z,9.40
2022-09-18T20:48:05.984Z,9.37
2022-09-18T20:50:33.539Z,9.35
2022-09-18T20:53:02.740Z,9.31
2022-09-18T20:55:30.255Z,9.32
2022-09-18T20:58:02.032Z,9.32
2022-09-18T21:00:28.198Z,9.35
2022-09-18T21:02:55.638Z,9.35
2022-09-18T21:05:23.241Z,9.35
2022-09-18T21:07:53.583Z,9.36
2022-09-18T21:10:21.021Z,9.37
2022-09-18T21:12:48.361Z,9.36
2022-09-18T21:15:15.672Z,9.38
2022-09-18T21:17:43.163Z,9.40
2022-09-18T21:20:11.643Z,9.42
2022-09-18T21:22:40.992Z,9.47
2022-09-18T21:25:09.016Z,9.50
2022-09-18T21:27:36.355Z,9.52
2022-09-18T21:30:04.191Z,9.54
2022-09-18T21:32:31.679Z,9.54
2022-09-18T21:35:00.953Z,9.54
2022-09-18T21:37:28.400Z,9.53
2022-09-18T21:39:56.517Z,9.50
2022-09-18T21:42:25.418Z,9.47
2022-09-18T21:44:53.517Z,9.43
2022-09-18T21:47:21.031Z,9.41
2022-09-18T21:49:48.266Z,9.43
2022-09-18T21:52:16.281Z,9.44
2022-09-18T21:54:43.866Z,9.44
2022-09-18T21:57:11.598Z,9.41
2022-09-18T21:59:39.227Z,9.40
2022-09-18T22:02:08.638Z,9.39
2022-09-18T22:04:38.084Z,9.39
2022-09-18T22:07:05.712Z,9.41
2022-09-18T22:09:38.720Z,9.43
2022-09-18T22:12:07.240Z,9.42
2022-09-18T22:14:34.935Z,9.40
2022-09-18T22:17:04.875Z,9.43
2022-09-18T22:19:32.943Z,9.47
2022-09-18T22:22:01.479Z,9.49
2022-09-18T22:24:29.372Z,9.49
2022-09-18T22:27:02.104Z,9.49
2022-09-18T22:29:32.259Z,9.48
2022-09-18T22:32:00.584Z,9.47
2022-09-18T22:34:32.095Z,9.45
2022-09-18T22:37:00.237Z,9.46
2022-09-18T22:39:28.337Z,9.44
2022-09-18T22:41:56.065Z,9.44
2022-09-18T22:44:23.676Z,9.43
2022-09-18T22:46:52.447Z,9.42
2022-09-18T22:49:22.108Z,9.39
2022-09-18T22:51:50.890Z,9.37
2022-09-18T22:54:23.688Z,9.36
2022-09-18T22:56:51.707Z,9.35
2022-09-18T22:59:21.351Z,9.36
2022-09-18T23:01:55.862Z,9.37
2022-09-18T23:04:26.821Z,9.37
2022-09-18T23:06:55.577Z,9.35
2022-09-18T23:09:23.362Z,9.34
2022-09-18T23:11:54.808Z,9.32
2022-09-18T23:14:27.625Z,9.30
2022-09-18T23:16:56.386Z,9.29
2022-09-18T23:19:26.443Z,9.29
2022-09-18T23:21:54.247Z,9.28
2022-09-18T23:24:22.552Z,9.25
2022-09-18T23:26:51.981Z,9.25
2022-09-18T23:29:22.325Z,9.21
2022-09-18T23:31:58.112Z,9.18
2022-09-18T23:34:30.927Z,9.15
2022-09-18T23:36:59.167Z,9.12
2022-09-18T23:39:29.036Z,9.09
2022-09-18T23:41:58.390Z,9.07
2022-09-18T23:44:28.145Z,9.01
2022-09-18T23:46:56.009Z,8.96
2022-09-18T23:49:24.020Z,8.91
2022-09-18T23:51:53.703Z,8.87
2022-09-18T23:54:23.453Z,8.86
2022-09-18T23:56:51.769Z,8.82
2022-09-18T23:59:22.832Z,8.79
